Time;durP1;ratioP1;P1;durP2;ratioP2;P2;SDS_P1;SDS_P2;PMS_P1;PMS_P2;Temp;Humidity;BMP_temperature;BMP_pressure;BME280_temperature;BME280_humidity;BME280_pressure;Samples;Min_cycle;Max_cycle;Signal;HPM_P1;HPM_P2
2023/03/04 00:00:29;;;;;;;10.20;3.40;;;7.00;99.90;;;;;;5137230;27;20803;-74
2023/03/04 00:02:54;;;;;;;11.60;3.88;;;7.00;99.90;;;;;;5120568;27;20045;-74
2023/03/04 00:05:20;;;;;;;9.70;3.65;;;7.00;99.90;;;;;;5137999;27;20043;-74
2023/03/04 00:07:46;;;;;;;11.15;3.60;;;7.00;99.90;;;;;;5138773;27;20054;-73
2023/03/04 00:10:12;;;;;;;8.02;4.00;;;7.00;99.90;;;;;;5101882;27;20050;-74
2023/03/04 00:12:38;;;;;;;9.10;3.85;;;7.00;99.90;;;;;;5118412;27;20617;-74
2023/03/04 00:15:04;;;;;;;8.55;3.17;;;7.00;99.90;;;;;;5117417;27;20046;-73
2023/03/04 00:17:30;;;;;;;7.40;3.05;;;7.00;99.90;;;;;;5123169;27;20051;-74
2023/03/04 00:19:56;;;;;;;5.60;2.55;;;7.00;99.90;;;;;;5142532;27;20047;-73
2023/03/04 00:22:22;;;;;;;12.23;3.88;;;6.90;99.90;;;;;;5142634;27;20050;-73
2023/03/04 00:24:48;;;;;;;13.38;4.50;;;7.00;99.90;;;;;;5140074;27;20066;-74
2023/03/04 00:27:14;;;;;;;7.57;3.53;;;7.00;99.90;;;;;;5140138;27;20050;-73
2023/03/04 00:29:39;;;;;;;7.43;3.15;;;6.90;99.90;;;;;;5142750;27;20499;-73
2023/03/04 00:32:05;;;;;;;7.07;3.38;;;6.90;99.90;;;;;;5143886;27;20045;-74
2023/03/04 00:34:31;;;;;;;13.20;3.05;;;6.90;99.90;;;;;;5140885;27;20039;-74
2023/03/04 00:37:00;;;;;;;12.18;3.30;;;6.90;99.90;;;;;;5143608;27;20815;-74
2023/03/04 00:39:29;;;;;;;11.13;3.20;;;6.90;99.90;;;;;;5111587;27;20852;-74
2023/03/04 00:41:54;;;;;;;7.40;2.40;;;6.90;99.90;;;;;;5133994;27;20046;-73
2023/03/04 00:44:20;;;;;;;6.35;2.88;;;6.90;99.90;;;;;;5125413;27;20581;-74
2023/03/04 00:46:46;;;;;;;12.40;3.33;;;6.80;99.90;;;;;;5115699;27;20051;-73
2023/03/04 00:49:11;;;;;;;11.43;2.88;;;6.90;99.90;;;;;;5143866;27;20096;-73
2023/03/04 00:51:37;;;;;;;6.45;2.63;;;6.90;99.90;;;;;;5143434;27;20510;-74
2023/03/04 00:54:03;;;;;;;8.00;2.83;;;7.00;99.90;;;;;;5138064;27;20075;-74
2023/03/04 00:56:28;;;;;;;7.80;2.92;;;6.90;99.90;;;;;;5136019;27;20118;-74
2023/03/04 00:58:54;;;;;;;7.55;3.05;;;6.90;99.90;;;;;;5114487;27;20046;-73
2023/03/04 01:01:20;;;;;;;5.90;2.55;;;6.90;99.90;;;;;;5128914;27;20035;-72
2023/03/04 01:03:46;;;;;;;10.35;2.97;;;6.90;99.90;;;;;;5123858;27;20087;-74
2023/03/04 01:06:12;;;;;;;10.50;3.22;;;6.90;99.90;;;;;;5130471;27;20051;-72
2023/03/04 01:08:38;;;;;;;18.02;3.63;;;7.30;99.90;;;;;;5141706;27;20167;-74
2023/03/04 01:11:04;;;;;;;8.15;2.50;;;7.00;99.90;;;;;;5144793;27;20502;-75
2023/03/04 01:13:30;;;;;;;5.68;3.10;;;7.00;99.90;;;;;;5096436;27;20130;-75
2023/03/04 01:15:56;;;;;;;6.85;2.67;;;6.90;99.90;;;;;;5136646;27;20054;-73
2023/03/04 01:18:23;;;;;;;10.20;3.15;;;6.90;99.90;;;;;;5135867;27;20057;-74
2023/03/04 01:20:49;;;;;;;7.75;3.13;;;7.00;99.90;;;;;;5143377;27;20045;-74
2023/03/04 01:23:15;;;;;;;8.25;2.75;;;6.90;99.90;;;;;;5110453;27;20133;-75
2023/03/04 01:25:40;;;;;;;7.03;3.03;;;7.00;99.90;;;;;;5141914;27;20087;-74
2023/03/04 01:28:06;;;;;;;8.75;2.70;;;7.00;99.90;;;;;;5142494;27;20047;-73
2023/03/04 01:30:32;;;;;;;9.38;2.42;;;7.00;99.90;;;;;;5143865;27;20068;-76
2023/03/04 01:32:57;;;;;;;11.90;3.38;;;7.00;99.90;;;;;;5142192;27;20080;-73
2023/03/04 01:35:23;;;;;;;10.75;3.55;;;6.90;99.90;;;;;;5143414;27;20063;-74
2023/03/04 01:37:49;;;;;;;9.75;3.30;;;6.90;99.90;;;;;;5143050;27;20088;-75
2023/03/04 01:40:15;;;;;;;10.25;3.35;;;6.90;99.90;;;;;;5135788;27;20074;-75
2023/03/04 01:42:41;;;;;;;8.85;3.40;;;6.90;99.90;;;;;;5137657;27;20046;-74
2023/03/04 01:45:09;;;;;;;11.05;3.03;;;6.90;99.90;;;;;;5143535;27;20046;-74
2023/03/04 01:47:35;;;;;;;6.80;2.88;;;6.80;99.90;;;;;;5129227;27;20123;-75
2023/03/04 01:50:10;;;;;;;8.55;3.00;;;6.80;99.90;;;;;;5135664;27;20051;-74
2023/03/04 01:52:37;;;;;;;11.43;3.50;;;6.90;99.90;;;;;;5121107;27;21512;-75
2023/03/04 01:55:13;;;;;;;8.13;3.08;;;6.80;99.90;;;;;;5143280;27;20046;-74
2023/03/04 01:57:39;;;;;;;7.35;2.75;;;6.80;99.90;;;;;;5093948;27;20074;-75
2023/03/04 02:00:21;;;;;;;5.90;2.67;;;6.80;99.90;;;;;;5141616;27;20158;-75
2023/03/04 02:02:51;;;;;;;9.05;4.35;;;6.80;99.90;;;;;;5143004;27;20064;-73
2023/03/04 02:05:19;;;;;;;13.88;3.33;;;6.80;99.90;;;;;;5129800;27;20554;-73
2023/03/04 02:07:45;;;;;;;8.35;2.80;;;6.80;99.90;;;;;;5130278;27;20054;-75
2023/03/04 02:10:11;;;;;;;5.15;3.15;;;6.80;99.90;;;;;;5141357;27;20050;-73
2023/03/04 02:12:38;;;;;;;8.05;2.60;;;6.80;99.90;;;;;;5139485;27;20117;-74
2023/03/04 02:15:04;;;;;;;8.80;2.85;;;6.80;99.90;;;;;;5132315;27;20049;-75
2023/03/04 02:17:31;;;;;;;8.40;2.80;;;6.70;99.90;;;;;;5136104;27;20566;-75
2023/03/04 02:20:49;;;;;;;11.55;3.15;;;6.70;99.90;;;;;;5132694;27;20043;-75
2023/03/04 02:23:36;;;;;;;8.52;2.92;;;6.70;99.90;;;;;;5074123;28;20054;-74
2023/03/04 02:26:22;;;;;;;8.55;3.53;;;6.70;99.90;;;;;;5076195;28;20051;-73
2023/03/04 02:28:50;;;;;;;11.82;3.35;;;6.60;99.90;;;;;;5108164;27;20138;-74
2023/03/04 02:31:21;;;;;;;5.07;2.83;;;6.60;99.90;;;;;;5132202;27;20039;-75
2023/03/04 02:33:47;;;;;;;11.85;3.35;;;6.60;99.90;;;;;;5138004;27;20070;-75
2023/03/04 02:36:13;;;;;;;12.77;3.33;;;6.70;99.90;;;;;;5126939;27;20172;-75
2023/03/04 02:38:39;;;;;;;12.65;3.53;;;6.70;99.90;;;;;;5138704;27;20051;-74
2023/03/04 02:41:08;;;;;;;11.15;3.78;;;6.70;99.90;;;;;;5121931;27;20039;-75
2023/03/04 02:43:33;;;;;;;11.00;3.45;;;6.70;99.90;;;;;;5139073;27;20054;-74
2023/03/04 02:45:59;;;;;;;7.88;3.83;;;6.70;99.90;;;;;;5142452;27;20038;-75
2023/03/04 02:48:25;;;;;;;6.65;2.83;;;6.70;99.90;;;;;;5132174;27;20744;-75
2023/03/04 02:50:53;;;;;;;6.95;3.15;;;6.70;99.90;;;;;;5142702;27;20050;-74
2023/03/04 02:53:24;;;;;;;7.65;3.42;;;6.70;99.90;;;;;;5138723;27;20085;-74
2023/03/04 02:55:50;;;;;;;9.95;3.40;;;6.70;99.90;;;;;;5142416;27;20088;-75
2023/03/04 02:58:15;;;;;;;8.45;3.08;;;6.60;99.90;;;;;;5141523;27;20046;-73
2023/03/04 03:00:41;;;;;;;8.95;3.40;;;6.70;99.90;;;;;;5142186;27;20050;-75
2023/03/04 03:03:07;;;;;;;8.95;2.97;;;6.70;99.90;;;;;;5121712;27;20046;-74
2023/03/04 03:05:34;;;;;;;4.50;3.10;;;6.70;99.90;;;;;;5110674;27;20050;-75
2023/03/04 03:07:59;;;;;;;8.10;2.60;;;6.70;99.90;;;;;;5126126;27;20043;-75
2023/03/04 03:10:26;;;;;;;9.57;2.90;;;6.60;99.90;;;;;;5137184;27;20769;-75
2023/03/04 03:12:52;;;;;;;7.88;3.03;;;6.70;99.90;;;;;;5141360;27;20247;-74
2023/03/04 03:15:18;;;;;;;9.52;2.80;;;6.70;99.90;;;;;;5122362;27;20075;-74
2023/03/04 03:17:44;;;;;;;10.05;2.78;;;6.80;99.90;;;;;;5141492;27;20196;-74
2023/03/04 03:20:11;;;;;;;8.23;3.65;;;6.80;99.90;;;;;;5142168;27;20580;-74
2023/03/04 03:22:38;;;;;;;5.78;2.42;;;6.80;99.90;;;;;;5141739;27;20121;-74
2023/03/04 03:25:04;;;;;;;9.65;3.30;;;6.80;99.90;;;;;;5131734;27;20073;-75
2023/03/04 03:27:30;;;;;;;8.35;2.78;;;6.80;99.90;;;;;;5141762;27;20042;-75
2023/03/04 03:29:55;;;;;;;7.57;2.72;;;6.70;99.90;;;;;;5136126;27;20638;-74
2023/03/04 03:32:21;;;;;;;9.00;3.00;;;6.80;99.90;;;;;;5134357;27;20046;-74
2023/03/04 03:34:47;;;;;;;10.00;2.72;;;6.70;99.90;;;;;;5109896;27;20724;-74
2023/03/04 03:37:13;;;;;;;7.82;3.47;;;6.80;99.90;;;;;;5141037;27;20059;-75
2023/03/04 03:39:39;;;;;;;8.07;2.78;;;6.70;99.90;;;;;;5127207;27;20617;-74
2023/03/04 03:42:04;;;;;;;7.93;2.45;;;6.70;99.90;;;;;;5129706;27;20117;-75
2023/03/04 03:44:30;;;;;;;9.48;3.05;;;6.70;99.90;;;;;;5140434;27;20043;-74
2023/03/04 03:46:56;;;;;;;7.15;2.90;;;6.70;99.90;;;;;;5139986;27;20121;-75
2023/03/04 03:49:22;;;;;;;8.00;2.88;;;6.70;99.90;;;;;;5142589;27;20055;-75
2023/03/04 03:51:48;;;;;;;10.73;2.65;;;6.70;99.90;;;;;;5126610;27;20049;-74
2023/03/04 03:54:13;;;;;;;6.65;2.88;;;6.80;99.90;;;;;;5144383;27;20054;-74
2023/03/04 03:56:39;;;;;;;5.25;2.97;;;6.80;99.90;;;;;;5144418;27;20686;-75
2023/03/04 03:59:05;;;;;;;9.63;3.05;;;6.80;99.90;;;;;;5144949;27;20065;-74
2023/03/04 04:01:32;;;;;;;5.07;2.40;;;6.70;99.90;;;;;;5145626;27;20042;-75
2023/03/04 04:03:58;;;;;;;9.07;2.65;;;6.80;99.90;;;;;;5141777;27;20051;-74
2023/03/04 04:06:24;;;;;;;6.78;2.67;;;6.80;99.90;;;;;;5145873;27;20409;-75
2023/03/04 04:08:50;;;;;;;7.15;3.10;;;6.80;99.90;;;;;;5142073;27;20046;-75
2023/03/04 04:11:16;;;;;;;8.13;2.85;;;6.80;99.90;;;;;;5145740;27;20087;-74
2023/03/04 04:13:41;;;;;;;8.75;2.70;;;6.80;99.90;;;;;;5143859;27;20030;-76
2023/03/04 04:16:09;;;;;;;9.85;3.10;;;6.80;99.90;;;;;;5138051;27;20126;-75
2023/03/04 04:18:34;;;;;;;6.18;2.28;;;6.80;99.90;;;;;;5136879;27;20042;-75
2023/03/04 04:21:00;;;;;;;5.60;3.28;;;6.80;99.90;;;;;;5145002;27;20115;-76
2023/03/04 04:23:26;;;;;;;8.38;2.78;;;6.80;99.90;;;;;;5143326;27;20045;-75
2023/03/04 04:25:54;;;;;;;5.78;3.45;;;6.80;99.90;;;;;;5123254;27;20093;-76
2023/03/04 04:28:20;;;;;;;6.05;2.85;;;6.80;99.90;;;;;;5140756;27;20038;-74
2023/03/04 04:30:45;;;;;;;8.70;2.67;;;6.80;99.90;;;;;;5142904;27;20630;-74
2023/03/04 04:33:11;;;;;;;7.03;2.55;;;6.80;99.90;;;;;;5141302;27;20050;-74
2023/03/04 04:35:37;;;;;;;8.85;2.80;;;6.80;99.90;;;;;;5139066;27;20057;-75
2023/03/04 04:38:04;;;;;;;9.05;2.80;;;6.80;99.90;;;;;;5138486;27;20059;-74
2023/03/04 04:40:30;;;;;;;6.35;2.67;;;6.80;99.90;;;;;;5141107;27;20176;-76
2023/03/04 04:42:55;;;;;;;9.00;3.17;;;6.80;99.90;;;;;;5140206;27;20047;-75
2023/03/04 04:45:23;;;;;;;9.48;2.75;;;6.80;99.90;;;;;;5138299;27;20483;-75
2023/03/04 04:47:50;;;;;;;10.27;2.58;;;6.70;99.90;;;;;;5118258;27;20107;-75
2023/03/04 04:50:16;;;;;;;7.68;2.08;;;6.70;99.90;;;;;;5140586;27;20154;-74
2023/03/04 04:52:41;;;;;;;3.80;2.28;;;6.70;99.90;;;;;;5139974;27;20686;-75
2023/03/04 04:55:07;;;;;;;6.93;2.25;;;6.70;99.90;;;;;;5140439;27;20043;-75
2023/03/04 04:57:33;;;;;;;6.43;2.83;;;6.70;99.90;;;;;;5139704;27;20087;-74
2023/03/04 04:59:59;;;;;;;11.55;2.60;;;6.70;99.90;;;;;;5140703;27;20106;-74
2023/03/04 05:02:25;;;;;;;3.78;2.20;;;6.70;99.90;;;;;;5139627;27;20378;-75
2023/03/04 05:04:51;;;;;;;5.82;2.38;;;6.10;99.90;;;;;;5122524;27;20043;-74
2023/03/04 05:07:17;;;;;;;8.13;2.28;;;6.70;99.90;;;;;;5137719;27;20719;-75
2023/03/04 05:09:43;;;;;;;7.15;3.00;;;6.60;99.90;;;;;;5141438;27;20057;-75
2023/03/04 05:12:08;;;;;;;3.97;1.98;;;6.60;99.90;;;;;;5140034;27;20558;-75
2023/03/04 05:14:34;;;;;;;3.45;2.00;;;6.60;99.90;;;;;;5139173;27;20045;-75
2023/03/04 05:16:59;;;;;;;7.80;3.10;;;6.60;99.90;;;;;;5139571;27;20043;-75
2023/03/04 05:19:25;;;;;;;8.55;2.65;;;6.60;99.90;;;;;;5140821;27;20049;-74
2023/03/04 05:21:51;;;;;;;10.82;2.40;;;6.60;99.90;;;;;;5141231;27;20145;-75
2023/03/04 05:24:17;;;;;;;6.50;2.30;;;6.50;99.90;;;;;;5141347;27;20760;-74
2023/03/04 05:26:42;;;;;;;6.82;3.97;;;6.60;99.90;;;;;;5140955;27;20084;-75
2023/03/04 05:29:08;;;;;;;9.70;3.03;;;6.50;99.90;;;;;;5139499;27;20042;-75
2023/03/04 05:31:34;;;;;;;6.80;2.85;;;6.50;99.90;;;;;;5141856;27;20740;-75
2023/03/04 05:33:59;;;;;;;4.85;2.20;;;6.40;99.90;;;;;;5140954;27;20035;-76
2023/03/04 05:36:25;;;;;;;7.63;2.08;;;6.40;99.90;;;;;;5120988;27;20054;-75
2023/03/04 05:38:51;;;;;;;8.05;2.50;;;6.40;99.90;;;;;;5140333;27;20457;-75
2023/03/04 05:41:19;;;;;;;6.65;2.72;;;6.40;99.90;;;;;;5141238;27;20126;-75
2023/03/04 05:43:45;;;;;;;2.80;2.10;;;6.40;99.90;;;;;;5138372;27;20128;-76
2023/03/04 05:46:16;;;;;;;6.75;2.05;;;6.40;99.90;;;;;;5139179;27;20170;-76
2023/03/04 05:48:43;;;;;;;4.93;3.03;;;6.40;99.90;;;;;;5118881;27;20051;-76
2023/03/04 05:51:08;;;;;;;7.38;2.50;;;6.40;99.90;;;;;;5115829;27;20039;-77
2023/03/04 05:53:38;;;;;;;5.15;2.47;;;6.40;99.90;;;;;;5137757;27;20505;-78
2023/03/04 05:56:13;;;;;;;5.68;2.72;;;6.40;99.90;;;;;;5136742;27;20065;-77
2023/03/04 05:58:38;;;;;;;4.80;2.58;;;6.40;99.90;;;;;;5136235;27;20133;-78
2023/03/04 06:01:04;;;;;;;5.57;2.38;;;6.40;99.90;;;;;;5118583;27;20049;-78
2023/03/04 06:03:31;;;;;;;5.28;2.40;;;6.40;99.90;;;;;;5136820;27;20038;-76
2023/03/04 06:05:56;;;;;;;7.43;2.28;;;6.50;99.90;;;;;;5137439;27;20038;-78
2023/03/04 06:08:22;;;;;;;2.83;2.17;;;6.40;99.90;;;;;;5117533;27;20100;-78
2023/03/04 06:10:51;;;;;;;6.10;2.88;;;6.40;99.90;;;;;;5134816;27;20054;-76
2023/03/04 06:13:17;;;;;;;7.47;3.78;;;6.40;99.90;;;;;;5133844;27;20054;-78
2023/03/04 06:15:43;;;;;;;8.57;4.43;;;6.40;99.90;;;;;;5136614;27;20057;-76
2023/03/04 06:18:09;;;;;;;7.60;3.53;;;6.40;99.90;;;;;;5137997;27;20479;-76
2023/03/04 06:20:35;;;;;;;7.97;2.70;;;6.40;99.90;;;;;;5118053;27;20046;-77
2023/03/04 06:23:01;;;;;;;6.28;2.80;;;6.40;99.90;;;;;;5136880;27;20466;-76
2023/03/04 06:25:26;;;;;;;4.03;2.65;;;6.50;99.90;;;;;;5135472;27;20061;-77
2023/03/04 06:27:52;;;;;;;4.57;2.80;;;6.50;99.90;;;;;;5133981;27;20499;-77
2023/03/04 06:30:18;;;;;;;6.55;3.10;;;6.50;99.90;;;;;;5139046;27;20142;-77
2023/03/04 06:32:46;;;;;;;8.57;3.83;;;6.50;99.90;;;;;;5139636;27;20047;-79
2023/03/04 06:35:12;;;;;;;8.60;2.88;;;6.50;99.90;;;;;;5137930;27;20071;-77
2023/03/04 06:37:39;;;;;;;8.13;2.83;;;6.50;99.90;;;;;;5139954;27;20059;-77
2023/03/04 06:40:06;;;;;;;5.38;2.70;;;6.50;99.90;;;;;;5120350;27;20043;-78
2023/03/04 06:42:33;;;;;;;7.18;2.67;;;6.50;99.90;;;;;;5140603;27;20046;-78
2023/03/04 06:44:59;;;;;;;6.03;2.70;;;6.50;99.90;;;;;;5140913;27;20050;-78
2023/03/04 06:47:25;;;;;;;6.50;3.15;;;6.50;99.90;;;;;;5139902;27;20043;-79
2023/03/04 06:49:51;;;;;;;3.20;2.35;;;6.50;99.90;;;;;;5140686;27;20055;-78
2023/03/04 06:52:17;;;;;;;4.35;2.17;;;6.50;99.90;;;;;;5140204;27;20099;-76
2023/03/04 06:54:42;;;;;;;6.40;2.80;;;6.50;99.90;;;;;;5137269;27;20043;-77
2023/03/04 06:57:08;;;;;;;5.05;2.15;;;6.50;99.90;;;;;;5139603;27;20569;-78
2023/03/04 06:59:34;;;;;;;10.85;2.47;;;6.50;99.90;;;;;;5111344;27;20047;-78
2023/03/04 07:02:00;;;;;;;4.72;2.35;;;6.50;99.90;;;;;;5139646;27;20057;-78
2023/03/04 07:04:25;;;;;;;4.70;2.00;;;6.50;99.90;;;;;;5138903;27;20095;-77
2023/03/04 07:06:51;;;;;;;3.80;2.47;;;6.50;99.90;;;;;;5139719;27;20293;-76
2023/03/04 07:09:18;;;;;;;10.70;3.80;;;6.50;99.90;;;;;;5136792;27;20047;-77
2023/03/04 07:11:44;;;;;;;6.20;2.95;;;6.60;99.90;;;;;;5136688;27;20404;-75
2023/03/04 07:14:10;;;;;;;8.80;2.63;;;6.60;99.90;;;;;;5136864;27;20046;-77
2023/03/04 07:16:36;;;;;;;3.78;1.83;;;6.60;99.90;;;;;;5129791;27;20058;-78
2023/03/04 07:19:02;;;;;;;6.13;2.30;;;6.60;99.90;;;;;;5128494;27;20491;-77
2023/03/04 07:21:28;;;;;;;11.65;3.17;;;6.60;99.90;;;;;;5105143;27;20077;-76
2023/03/04 07:23:54;;;;;;;11.00;3.38;;;6.60;99.90;;;;;;5128929;27;20125;-79
2023/03/04 07:26:20;;;;;;;5.30;3.13;;;6.70;99.90;;;;;;5138264;27;20061;-77
2023/03/04 07:28:46;;;;;;;5.93;2.33;;;6.60;99.90;;;;;;5136044;27;20129;-76
2023/03/04 07:31:20;;;;;;;9.52;3.03;;;6.60;99.90;;;;;;5122828;27;20047;-77
2023/03/04 07:33:46;;;;;;;4.10;2.08;;;6.60;99.90;;;;;;5136943;27;20049;-77
2023/03/04 07:36:18;;;;;;;5.03;2.40;;;6.70;99.90;;;;;;5087851;27;20460;-78
2023/03/04 07:38:49;;;;;;;11.90;3.75;;;6.70;99.90;;;;;;5111979;27;20051;-77
2023/03/04 07:41:15;;;;;;;7.00;2.30;;;6.70;99.90;;;;;;5137288;27;20034;-78
2023/03/04 07:43:41;;;;;;;8.52;3.47;;;6.80;99.90;;;;;;5097719;28;20051;-77
2023/03/04 07:46:07;;;;;;;4.55;2.33;;;5.50;99.90;;;;;;5103754;27;20051;-78
2023/03/04 07:48:33;;;;;;;7.88;2.22;;;6.80;99.90;;;;;;5140673;27;20054;-76
2023/03/04 07:51:02;;;;;;;5.70;2.47;;;6.80;99.90;;;;;;5126941;27;20043;-78
2023/03/04 07:53:28;;;;;;;5.32;2.70;;;6.80;99.90;;;;;;5126521;27;20039;-77
2023/03/04 07:55:54;;;;;;;7.22;2.17;;;6.80;99.90;;;;;;5138448;27;20042;-78
2023/03/04 07:58:19;;;;;;;6.28;2.25;;;6.80;99.90;;;;;;5135660;27;20142;-80
2023/03/04 08:00:45;;;;;;;10.95;2.70;;;6.80;99.90;;;;;;5138294;27;20399;-79
2023/03/04 08:03:11;;;;;;;8.65;3.35;;;6.90;99.90;;;;;;5133118;27;20372;-79
2023/03/04 08:05:38;;;;;;;9.95;3.25;;;6.80;99.90;;;;;;5140022;27;20046;-78
2023/03/04 08:08:05;;;;;;;13.48;4.45;;;6.80;99.90;;;;;;5139740;27;20043;-75
2023/03/04 08:10:30;;;;;;;9.98;4.22;;;6.80;99.90;;;;;;5133013;27;20670;-75
2023/03/04 08:12:56;;;;;;;8.80;3.75;;;6.80;99.90;;;;;;5119668;27;20042;-75
2023/03/04 08:15:22;;;;;;;20.08;4.82;;;6.60;99.90;;;;;;5108362;27;20093;-75
2023/03/04 08:17:48;;;;;;;19.58;5.35;;;6.60;99.90;;;;;;5137218;27;20504;-77
2023/03/04 08:20:13;;;;;;;12.10;4.63;;;6.40;99.90;;;;;;5119571;27;20068;-76
2023/03/04 08:22:39;;;;;;;9.18;5.20;;;6.40;99.90;;;;;;5117750;27;20486;-75
2023/03/04 08:25:05;;;;;;;17.95;4.82;;;6.40;99.90;;;;;;5129741;27;20039;-77
2023/03/04 08:27:30;;;;;;;16.10;4.57;;;6.40;99.90;;;;;;5138556;27;20850;-76
2023/03/04 08:29:56;;;;;;;14.32;5.15;;;6.40;99.90;;;;;;5136478;27;20085;-77
2023/03/04 08:32:22;;;;;;;14.05;5.05;;;6.50;99.90;;;;;;5113697;27;20051;-78
2023/03/04 08:34:48;;;;;;;16.83;5.82;;;6.50;99.90;;;;;;5126681;27;20046;-75
2023/03/04 08:37:13;;;;;;;11.95;5.22;;;6.60;99.90;;;;;;5136023;27;20127;-76
2023/03/04 08:39:39;;;;;;;13.20;5.97;;;6.70;99.90;;;;;;5135079;27;20137;-77
2023/03/04 08:42:05;;;;;;;11.38;5.28;;;6.90;99.90;;;;;;5115883;27;20039;-77
2023/03/04 08:44:30;;;;;;;10.38;4.93;;;6.90;99.90;;;;;;5138279;27;20046;-76
2023/03/04 08:46:56;;;;;;;10.50;4.50;;;6.90;99.90;;;;;;5143865;27;20435;-78
2023/03/04 08:49:22;;;;;;;19.13;6.38;;;6.80;99.90;;;;;;5123251;27;20130;-75
2023/03/04 08:51:47;;;;;;;12.48;4.65;;;6.80;99.90;;;;;;5124940;27;20145;-75
2023/03/04 08:54:13;;;;;;;17.27;5.80;;;6.80;99.90;;;;;;5141263;27;20043;-75
2023/03/04 08:56:40;;;;;;;20.45;6.25;;;6.80;99.90;;;;;;5142708;27;20084;-76
2023/03/04 08:59:05;;;;;;;11.85;5.22;;;6.90;99.90;;;;;;5142268;27;20134;-77
2023/03/04 09:01:31;;;;;;;11.57;5.07;;;6.90;99.90;;;;;;5140282;27;20055;-76
2023/03/04 09:03:57;;;;;;;14.48;5.95;;;7.00;99.90;;;;;;5140133;27;20031;-76
2023/03/04 09:06:22;;;;;;;10.73;5.43;;;7.00;99.90;;;;;;5124231;27;20745;-75
2023/03/04 09:08:48;;;;;;;13.10;4.40;;;7.00;99.90;;;;;;5141542;27;20079;-75
2023/03/04 09:11:14;;;;;;;15.35;5.85;;;7.00;99.90;;;;;;5143178;27;20043;-76
2023/03/04 09:13:40;;;;;;;14.70;4.72;;;7.00;99.90;;;;;;5140004;27;20441;-75
2023/03/04 09:16:10;;;;;;;20.75;6.00;;;7.10;99.90;;;;;;5124113;27;20105;-77
2023/03/04 09:18:36;;;;;;;15.77;5.45;;;7.10;99.90;;;;;;5135869;27;20050;-76
2023/03/04 09:21:02;;;;;;;14.05;5.32;;;7.10;99.90;;;;;;5142970;27;20100;-76
2023/03/04 09:23:27;;;;;;;12.25;5.55;;;7.20;99.90;;;;;;5142088;27;20145;-76
2023/03/04 09:25:53;;;;;;;14.02;5.18;;;7.30;99.90;;;;;;5123565;27;20517;-75
2023/03/04 09:28:19;;;;;;;19.35;5.70;;;7.30;99.90;;;;;;5143548;27;20062;-77
2023/03/04 09:30:45;;;;;;;15.98;4.93;;;7.40;99.90;;;;;;5143043;27;20141;-76
2023/03/04 09:33:11;;;;;;;11.60;3.28;;;7.20;99.90;;;;;;5144083;27;20218;-76
2023/03/04 09:35:37;;;;;;;10.05;3.03;;;7.30;99.90;;;;;;5101661;27;20491;-79
2023/03/04 09:38:02;;;;;;;9.00;2.97;;;7.30;99.90;;;;;;5135601;27;20061;-79
2023/03/04 09:40:41;;;;;;;12.27;3.83;;;7.30;99.90;;;;;;5141909;27;20051;-76
2023/03/04 09:43:32;;;;;;;9.38;2.78;;;7.20;99.90;;;;;;5123768;27;20475;-77
2023/03/04 09:46:05;;;;;;;11.82;3.00;;;7.20;99.90;;;;;;5123972;27;20080;-77
2023/03/04 09:48:48;;;;;;;6.60;2.90;;;7.10;99.90;;;;;;5140362;27;20047;-76
2023/03/04 09:52:08;;;;;;;9.20;3.00;;;7.00;99.90;;;;;;5141259;27;20103;-76
2023/03/04 09:54:54;;;;;;;3.78;2.55;;;7.10;99.90;;;;;;5036314;28;20045;-77
2023/03/04 09:57:41;;;;;;;5.45;1.88;;;7.10;99.90;;;;;;5118552;27;20082;-78
2023/03/04 10:00:25;;;;;;;7.80;2.28;;;7.20;99.90;;;;;;5132325;27;20039;-77
2023/03/04 10:02:50;;;;;;;6.50;2.50;;;7.30;99.90;;;;;;5123083;27;20085;-77
2023/03/04 10:05:20;;;;;;;9.65;3.35;;;7.50;99.90;;;;;;5142695;27;20479;-78
2023/03/04 10:07:55;;;;;;;7.72;2.05;;;7.50;99.90;;;;;;5142974;27;20122;-77
2023/03/04 10:10:30;;;;;;;4.57;2.15;;;7.50;99.90;;;;;;5122626;27;20760;-77
2023/03/04 10:12:57;;;;;;;7.40;3.08;;;7.70;99.90;;;;;;5133328;27;20047;-77
2023/03/04 10:15:41;;;;;;;8.52;2.45;;;8.20;99.90;;;;;;5126243;27;21123;-77
2023/03/04 10:18:42;;;;;;;5.95;2.92;;;8.80;99.90;;;;;;5134888;27;20046;-76
2023/03/04 10:21:30;;;;;;;4.35;2.47;;;8.70;99.90;;;;;;5125267;27;20225;-76
2023/03/04 10:23:57;;;;;;;5.68;3.15;;;8.30;99.90;;;;;;5141238;27;20039;-78
2023/03/04 10:26:28;;;;;;;13.00;3.13;;;8.10;99.90;;;;;;5141326;27;20150;-77
2023/03/04 10:28:53;;;;;;;9.55;2.83;;;7.80;99.90;;;;;;5140849;27;20051;-78
2023/03/04 10:31:30;;;;;;;11.23;4.20;;;7.50;99.90;;;;;;5139557;27;20605;-78
2023/03/04 10:33:56;;;;;;;7.88;3.33;;;7.60;99.90;;;;;;5141579;27;20081;-78
2023/03/04 10:36:28;;;;;;;10.45;3.38;;;7.50;99.90;;;;;;5117271;27;20121;-77
2023/03/04 10:38:57;;;;;;;12.15;4.38;;;7.50;99.90;;;;;;5141142;27;20038;-76
2023/03/04 10:41:26;;;;;;;10.68;4.38;;;7.70;99.90;;;;;;5139600;27;20138;-75
2023/03/04 10:44:17;;;;;;;8.13;3.08;;;7.50;99.90;;;;;;5140389;27;20046;-77
2023/03/04 10:46:46;;;;;;;12.07;3.58;;;7.70;99.90;;;;;;5141508;27;20677;-77
2023/03/04 10:49:16;;;;;;;15.00;4.15;;;7.70;99.90;;;;;;5141146;27;20889;-74
2023/03/04 10:51:46;;;;;;;13.15;4.05;;;7.60;99.90;;;;;;5113058;27;20117;-76
2023/03/04 10:54:48;;;;;;;7.22;3.65;;;7.50;99.90;;;;;;5137483;27;20051;-76
2023/03/04 10:57:22;;;;;;;13.40;4.25;;;7.40;99.90;;;;;;5122887;27;20050;-74
2023/03/04 10:59:54;;;;;;;14.15;3.97;;;7.40;99.90;;;;;;5137800;27;20085;-77
2023/03/04 11:02:22;;;;;;;9.73;4.43;;;7.50;99.90;;;;;;5130471;27;20657;-78
2023/03/04 11:04:56;;;;;;;9.57;4.38;;;8.40;99.90;;;;;;5136817;27;20153;-77
2023/03/04 11:07:24;;;;;;;15.35;4.03;;;7.50;99.90;;;;;;5121880;27;20057;-78
2023/03/04 11:09:51;;;;;;;15.93;4.22;;;7.50;99.90;;;;;;5141168;27;20046;-78
2023/03/04 11:12:21;;;;;;;12.38;5.10;;;7.50;99.90;;;;;;5126995;27;20042;-75
2023/03/04 11:14:49;;;;;;;11.75;4.40;;;7.50;99.90;;;;;;5134409;27;20042;-78
2023/03/04 11:17:24;;;;;;;11.55;5.28;;;7.60;99.90;;;;;;5131450;27;20082;-74
2023/03/04 11:20:31;;;;;;;12.80;4.57;;;7.70;99.90;;;;;;5135643;27;20074;-77
2023/03/04 11:23:04;;;;;;;17.45;3.72;;;7.80;99.90;;;;;;5137733;27;20058;-80
2023/03/04 11:25:39;;;;;;;12.48;4.10;;;7.80;99.90;;;;;;5135317;27;20055;-80
2023/03/04 11:28:33;;;;;;;11.40;3.85;;;7.70;99.90;;;;;;5112454;27;20111;-80
2023/03/04 11:31:05;;;;;;;8.95;3.63;;;7.70;99.90;;;;;;5140235;27;20138;-79
2023/03/04 11:33:46;;;;;;;9.88;3.65;;;7.70;99.90;;;;;;5141513;27;20051;-79
2023/03/04 11:36:27;;;;;;;11.93;4.25;;;7.70;99.90;;;;;;5130837;27;20046;-77
2023/03/04 11:38:53;;;;;;;11.75;3.28;;;7.60;99.90;;;;;;5137911;27;20391;-76
2023/03/04 11:41:31;;;;;;;9.32;3.63;;;7.70;99.90;;;;;;5140520;27;20038;-78
2023/03/04 11:43:58;;;;;;;12.75;4.45;;;7.80;99.90;;;;;;5140338;27;20038;-77
2023/03/04 11:46:39;;;;;;;7.78;3.65;;;7.80;99.90;;;;;;5141542;27;20111;-77
2023/03/04 11:49:21;;;;;;;15.32;3.65;;;8.00;99.90;;;;;;5134296;27;20118;-75
2023/03/04 11:52:44;;;;;;;10.45;3.60;;;7.90;99.90;;;;;;5134070;27;20046;-76
2023/03/04 11:55:36;;;;;;;9.98;3.80;;;7.80;99.90;;;;;;5056463;28;20048;-76
2023/03/04 11:58:05;;;;;;;8.63;3.17;;;7.60;99.90;;;;;;5053967;28;20063;-78
2023/03/04 12:00:50;;;;;;;7.35;3.90;;;7.60;99.90;;;;;;5122543;27;20054;-77
2023/03/04 12:03:40;;;;;;;9.73;3.35;;;7.60;99.90;;;;;;5138503;27;20149;-76
2023/03/04 12:06:11;;;;;;;9.43;3.55;;;7.50;99.90;;;;;;5134584;27;20047;-77
2023/03/04 12:08:58;;;;;;;8.88;3.00;;;7.40;99.90;;;;;;5140369;27;20822;-77
2023/03/04 12:11:39;;;;;;;8.93;3.83;;;7.40;99.90;;;;;;5144347;27;20058;-77
2023/03/04 12:14:10;;;;;;;11.63;4.07;;;7.30;99.90;;;;;;5139021;27;20047;-76
2023/03/04 12:16:45;;;;;;;12.55;3.53;;;7.60;99.90;;;;;;5145233;27;20053;-78
2023/03/04 12:19:20;;;;;;;9.45;3.70;;;7.80;99.90;;;;;;5143874;27;20107;-78
2023/03/04 12:22:06;;;;;;;11.43;3.90;;;7.70;99.90;;;;;;5145503;27;20054;-76
2023/03/04 12:25:01;;;;;;;7.95;3.35;;;7.50;99.90;;;;;;5143783;27;20068;-76
2023/03/04 12:27:42;;;;;;;13.68;3.70;;;7.40;99.90;;;;;;5142876;27;20065;-75
2023/03/04 12:30:29;;;;;;;8.07;3.70;;;7.50;99.90;;;;;;5144227;27;20542;-77
2023/03/04 12:33:07;;;;;;;10.25;3.92;;;7.70;99.90;;;;;;5116703;27;20689;-76
2023/03/04 12:35:39;;;;;;;6.63;3.30;;;7.70;99.90;;;;;;5143186;27;20479;-76
2023/03/04 12:38:15;;;;;;;10.25;4.32;;;7.90;99.90;;;;;;5141633;27;20139;-73
2023/03/04 12:41:04;;;;;;;9.10;4.10;;;7.90;99.90;;;;;;5144734;27;20053;-77
2023/03/04 12:43:41;;;;;;;8.77;3.25;;;7.90;99.90;;;;;;5137375;27;20043;-76
2023/03/04 12:46:10;;;;;;;9.43;3.83;;;7.60;99.90;;;;;;5143378;27;20050;-74
2023/03/04 12:49:08;;;;;;;8.13;3.78;;;7.60;99.90;;;;;;5135363;27;20046;-75
2023/03/04 12:52:00;;;;;;;13.93;4.28;;;7.50;99.90;;;;;;5131856;27;20809;-75
2023/03/04 12:54:26;;;;;;;10.23;4.32;;;7.50;99.90;;;;;;5078144;27;20077;-76
2023/03/04 12:57:20;;;;;;;15.73;3.88;;;7.60;99.90;;;;;;5130852;27;20414;-76
2023/03/04 13:00:12;;;;;;;8.57;3.33;;;7.80;99.90;;;;;;5138014;27;20050;-75
2023/03/04 13:03:13;;;;;;;11.07;3.47;;;7.80;99.90;;;;;;5083436;27;20054;-77
2023/03/04 13:06:11;;;;;;;8.30;3.63;;;7.70;99.90;;;;;;5096954;27;20063;-77